createdAt,value
2023-11-12T00:01:00.189Z,1004.41
2023-11-12T00:01:58.931Z,1004.42
2023-11-12T00:02:59.710Z,1004.41
2023-11-12T00:04:01.011Z,1004.39
2023-11-12T00:04:59.819Z,1004.41
2023-11-12T00:06:00.987Z,1004.37
2023-11-12T00:06:59.647Z,1004.41
2023-11-12T00:08:00.307Z,1004.36
2023-11-12T00:08:58.978Z,1004.37
2023-11-12T00:09:59.643Z,1004.4
2023-11-12T00:11:00.321Z,1004.4
2023-11-12T00:11:58.991Z,1004.4
2023-11-12T00:12:59.706Z,1004.49
2023-11-12T00:14:00.452Z,1004.46
2023-11-12T00:14:59.210Z,1004.47
2023-11-12T00:16:00.027Z,1004.49
2023-11-12T00:17:01.690Z,1004.51
2023-11-12T00:18:00.346Z,1004.46
2023-11-12T00:18:59.122Z,1004.52
2023-11-12T00:19:59.860Z,1004.51
2023-11-12T00:21:00.977Z,1004.52
2023-11-12T00:22:04.971Z,1004.54
2023-11-12T00:22:59.802Z,1004.46
2023-11-12T00:24:01.247Z,1004.5
2023-11-12T00:24:59.975Z,1004.53
2023-11-12T00:25:58.877Z,1004.5
2023-11-12T00:27:08.275Z,1004.53
2023-11-12T00:28:01.072Z,1004.53
2023-11-12T00:28:59.789Z,1004.48
2023-11-12T00:30:01.032Z,1004.49
2023-11-12T00:30:59.702Z,1004.51
2023-11-12T00:32:11.471Z,1004.48
2023-11-12T00:33:01.151Z,1004.49
2023-11-12T00:33:59.938Z,1004.48
2023-11-12T00:34:58.630Z,1004.53
2023-11-12T00:36:00.348Z,1004.5
2023-11-12T00:37:13.142Z,1004.5
2023-11-12T00:38:01.001Z,1004.49
2023-11-12T00:38:59.756Z,1004.45
2023-11-12T00:40:01.062Z,1004.43
2023-11-12T00:40:59.803Z,1004.47
2023-11-12T00:42:16.629Z,1004.5
2023-11-12T00:43:01.028Z,1004.47
2023-11-12T00:43:59.724Z,1004.46
2023-11-12T00:45:00.942Z,1004.49
2023-11-12T00:45:59.729Z,1004.53
2023-11-12T00:47:01.080Z,1004.48
2023-11-12T00:47:59.811Z,1004.5
2023-11-12T00:49:01.050Z,1004.49
2023-11-12T00:49:59.733Z,1004.46
2023-11-12T00:51:01.085Z,1004.51
2023-11-12T00:51:59.744Z,1004.46
2023-11-12T00:53:00.993Z,1004.49
2023-11-12T00:53:59.853Z,1004.48
2023-11-12T00:55:01.380Z,1004.49
2023-11-12T00:56:00.105Z,1004.51
2023-11-12T00:56:58.857Z,1004.49
2023-11-12T00:58:01.038Z,1004.46
2023-11-12T00:58:59.687Z,1004.47
2023-11-12T01:00:00.411Z,1004.47
2023-11-12T01:00:59.111Z,1004.51
2023-11-12T01:01:59.844Z,1004.53
2023-11-12T01:03:01.147Z,1004.49
2023-11-12T01:03:59.880Z,1004.57
2023-11-12T01:04:58.612Z,1004.54
2023-11-12T01:06:00.259Z,1004.59
2023-11-12T01:06:58.917Z,1004.58
2023-11-12T01:08:01.002Z,1004.6
2023-11-12T01:08:59.639Z,1004.59
2023-11-12T01:10:00.389Z,1004.62
2023-11-12T01:10:59.106Z,1004.58
2023-11-12T01:11:59.867Z,1004.61
2023-11-12T01:13:01.031Z,1004.62
2023-11-12T01:14:58.677Z,1004.65
2023-11-12T01:16:00.424Z,1004.65
2023-11-12T01:16:59.070Z,1004.61
2023-11-12T01:17:59.805Z,1004.59
2023-11-12T01:19:01.074Z,1004.56
2023-11-12T01:19:59.814Z,1004.62
2023-11-12T01:21:01.068Z,1004.6
2023-11-12T01:21:59.958Z,1004.57
2023-11-12T01:22:58.601Z,1004.6
2023-11-12T01:24:00.252Z,1004.59
2023-11-12T01:24:58.921Z,1004.59
2023-11-12T01:26:00.986Z,1004.57
2023-11-12T01:26:59.636Z,1004.56
2023-11-12T01:28:00.287Z,1004.59
2023-11-12T01:28:58.968Z,1004.55
2023-11-12T01:29:59.779Z,1004.56
2023-11-12T01:31:01.015Z,1004.55
2023-11-12T01:31:59.719Z,1004.54
2023-11-12T01:33:01.033Z,1004.52
2023-11-12T01:33:59.692Z,1004.5
2023-11-12T01:35:00.308Z,1004.49
2023-11-12T01:35:59.290Z,1004.53
2023-11-12T01:37:00.019Z,1004.56
2023-11-12T01:37:58.706Z,1004.52
2023-11-12T01:39:01.264Z,1004.51
2023-11-12T01:39:59.953Z,1004.51
2023-11-12T01:40:58.611Z,1004.53
2023-11-12T01:42:00.269Z,1004.54
2023-11-12T01:42:58.975Z,1004.5
2023-11-12T01:43:59.777Z,1004.52
2023-11-12T01:45:01.022Z,1004.49
2023-11-12T01:46:00.114Z,1004.5
2023-11-12T01:46:58.902Z,1004.45
2023-11-12T01:48:01.486Z,1004.45
2023-11-12T01:49:00.261Z,1004.49
2023-11-12T01:49:58.974Z,1004.49
2023-11-12T01:50:59.608Z,1004.5
2023-11-12T01:52:00.328Z,1004.5
2023-11-12T01:52:59.234Z,1004.49
2023-11-12T01:54:00.063Z,1004.5
2023-11-12T01:54:58.700Z,1004.48
2023-11-12T01:56:00.434Z,1004.45
2023-11-12T01:56:59.140Z,1004.45
2023-11-12T01:58:02.699Z,1004.52
2023-11-12T01:58:59.868Z,1004.46
2023-11-12T02:00:01.007Z,1004.46
2023-11-12T02:00:59.654Z,1004.48
2023-11-12T02:02:00.414Z,1004.47
2023-11-12T02:03:06.331Z,1004.46
2023-11-12T02:04:00.220Z,1004.43
2023-11-12T02:04:58.986Z,1004.42
2023-11-12T02:05:59.712Z,1004.4
2023-11-12T02:07:01.147Z,1004.46
2023-11-12T02:08:06.874Z,1004.43
2023-11-12T02:08:59.816Z,1004.39
2023-11-12T02:10:00.982Z,1004.39
2023-11-12T02:10:59.620Z,1004.41
2023-11-12T02:12:00.357Z,1004.44
2023-11-12T02:13:09.726Z,1004.36
2023-11-12T02:14:00.685Z,1004.38
2023-11-12T02:14:59.355Z,1004.35
2023-11-12T02:16:00.064Z,1004.38
2023-11-12T02:16:58.749Z,1004.43
2023-11-12T02:18:13.584Z,1004.39
2023-11-12T02:19:01.022Z,1004.45
2023-11-12T02:19:59.692Z,1004.41
2023-11-12T02:21:00.415Z,1004.4
2023-11-12T02:21:59.080Z,1004.39
2023-11-12T02:22:59.915Z,1004.41
2023-11-12T02:24:01.110Z,1004.42
2023-11-12T02:24:59.814Z,1004.39
2023-11-12T02:26:00.954Z,1004.42
2023-11-12T02:26:59.627Z,1004.45
2023-11-12T02:28:00.367Z,1004.42
2023-11-12T02:28:59.372Z,1004.44
2023-11-12T02:30:00.103Z,1004.44
2023-11-12T02:30:58.885Z,1004.39
2023-11-12T02:31:59.670Z,1004.44
2023-11-12T02:33:00.424Z,1004.44
2023-11-12T02:33:59.063Z,1004.48
2023-11-12T02:34:59.680Z,1004.48
2023-11-12T02:36:00.413Z,1004.47
2023-11-12T02:36:59.065Z,1004.47
2023-11-12T02:37:59.728Z,1004.5
2023-11-12T02:39:01.436Z,1004.48
2023-11-12T02:40:00.159Z,1004.48
2023-11-12T02:40:58.891Z,1004.5
2023-11-12T02:42:00.969Z,1004.48
2023-11-12T02:42:59.645Z,1004.52
2023-11-12T02:44:00.401Z,1004.51
2023-11-12T02:44:59.262Z,1004.48
2023-11-12T02:45:59.990Z,1004.48
2023-11-12T02:46:58.759Z,1004.48
2023-11-12T02:48:01.188Z,1004.49
2023-11-12T02:48:59.871Z,1004.5
2023-11-12T02:50:01.014Z,1004.51
2023-11-12T02:50:59.670Z,1004.49
2023-11-12T02:52:00.311Z,1004.48
2023-11-12T02:52:58.979Z,1004.46
2023-11-12T02:53:59.978Z,1004.49
2023-11-12T02:54:58.593Z,1004.51
2023-11-12T02:56:00.360Z,1004.48
2023-11-12T02:56:59.114Z,1004.51
2023-11-12T02:57:59.826Z,1004.48
2023-11-12T02:59:00.977Z,1004.47
2023-11-12T02:59:59.645Z,1004.48
2023-11-12T03:01:00.459Z,1004.46
2023-11-12T03:01:59.249Z,1004.45
2023-11-12T03:03:00.187Z,1004.43
2023-11-12T03:03:58.993Z,1004.46
2023-11-12T03:04:59.761Z,1004.41
2023-11-12T03:06:00.968Z,1004.41
2023-11-12T03:06:59.676Z,1004.41
2023-11-12T03:08:00.638Z,1004.41
2023-11-12T03:08:59.491Z,1004.4
2023-11-12T03:10:00.263Z,1004.44
2023-11-12T03:10:58.996Z,1004.44
2023-11-12T03:11:59.719Z,1004.45
2023-11-12T03:13:01.091Z,1004.48
2023-11-12T03:13:59.842Z,1004.47
2023-11-12T03:15:00.993Z,1004.45
2023-11-12T03:15:59.644Z,1004.5
2023-11-12T03:17:00.373Z,1004.49
2023-11-12T03:17:59.050Z,1004.48
2023-11-12T03:18:59.748Z,1004.47
2023-11-12T03:20:01.052Z,1004.49
2023-11-12T03:20:59.770Z,1004.5
2023-11-12T03:22:01.011Z,1004.5
2023-11-12T03:22:59.677Z,1004.55
2023-11-12T03:24:00.374Z,1004.52
2023-11-12T03:24:59.199Z,1004.53
2023-11-12T03:25:59.906Z,1004.5
2023-11-12T03:27:01.168Z,1004.52
2023-11-12T03:27:59.809Z,1004.53
2023-11-12T03:29:01.143Z,1004.58
2023-11-12T03:29:59.837Z,1004.61
2023-11-12T03:31:01.023Z,1004.55
2023-11-12T03:31:59.850Z,1004.63
2023-11-12T03:33:01.078Z,1004.55
2023-11-12T03:34:02.031Z,1004.59
2023-11-12T03:34:59.895Z,1004.55
2023-11-12T03:36:01.003Z,1004.57
2023-11-12T03:36:59.671Z,1004.55
2023-11-12T03:38:00.395Z,1004.57
2023-11-12T03:39:04.900Z,1004.54
2023-11-12T03:40:00.102Z,1004.56
2023-11-12T03:40:58.775Z,1004.55
2023-11-12T03:42:00.527Z,1004.54
2023-11-12T03:42:59.202Z,1004.51
2023-11-12T03:44:08.885Z,1004.5
2023-11-12T03:44:59.845Z,1004.52
2023-11-12T03:46:00.994Z,1004.57
2023-11-12T03:46:59.667Z,1004.49
2023-11-12T03:48:00.425Z,1004.51
2023-11-12T03:49:11.843Z,1004.53
2023-11-12T03:50:00.992Z,1004.58
2023-11-12T03:50:59.651Z,1004.54
2023-11-12T03:52:00.388Z,1004.49
2023-11-12T03:52:59.386Z,1004.52
2023-11-12T03:54:14.671Z,1004.52
2023-11-12T03:55:00.175Z,1004.56
2023-11-12T03:55:58.872Z,1004.51
2023-11-12T03:57:01.438Z,1004.49
2023-11-12T03:58:00.026Z,1004.51
2023-11-12T03:58:58.777Z,1004.54
2023-11-12T04:00:01.074Z,1004.51
2023-11-12T04:00:59.865Z,1004.5
2023-11-12T04:02:01.126Z,1004.46
2023-11-12T04:03:00.377Z,1004.48
2023-11-12T04:03:59.222Z,1004.47
2023-11-12T04:04:59.993Z,1004.53
2023-11-12T04:05:58.725Z,1004.49
2023-11-12T04:07:01.014Z,1004.5
2023-11-12T04:07:59.659Z,1004.5
2023-11-12T04:09:00.398Z,1004.49
2023-11-12T04:09:59.015Z,1004.54
2023-11-12T04:10:59.784Z,1004.56
2023-11-12T04:12:01.038Z,1004.56
2023-11-12T04:12:59.691Z,1004.56
2023-11-12T04:14:00.444Z,1004.54
2023-11-12T04:14:59.090Z,1004.6
2023-11-12T04:15:59.871Z,1004.58
2023-11-12T04:17:01.018Z,1004.59
2023-11-12T04:17:59.764Z,1004.64
2023-11-12T04:19:00.957Z,1004.6
2023-11-12T04:19:59.646Z,1004.55
2023-11-12T04:21:00.370Z,1004.57
2023-11-12T04:21:59.033Z,1004.59
2023-11-12T04:22:59.753Z,1004.57
2023-11-12T04:24:00.498Z,1004.59
2023-11-12T04:24:59.177Z,1004.58
2023-11-12T04:25:59.890Z,1004.59
2023-11-12T04:27:01.034Z,1004.6
2023-11-12T04:27:59.912Z,1004.56
2023-11-12T04:29:01.036Z,1004.56
2023-11-12T04:29:59.709Z,1004.56
2023-11-12T04:31:00.966Z,1004.56
2023-11-12T04:31:59.724Z,1004.53
2023-11-12T04:33:01.099Z,1004.57
2023-11-12T04:33:59.827Z,1004.48
2023-11-12T04:35:00.985Z,1004.55
2023-11-12T04:35:59.759Z,1004.59
2023-11-12T04:37:00.980Z,1004.57
2023-11-12T04:37:59.642Z,1004.6
2023-11-12T04:39:00.375Z,1004.58
2023-11-12T04:39:59.053Z,1004.6
2023-11-12T04:40:59.765Z,1004.61
2023-11-12T04:42:01.018Z,1004.61
2023-11-12T04:42:59.672Z,1004.58
2023-11-12T04:44:00.401Z,1004.6
2023-11-12T04:44:59.180Z,1004.59
2023-11-12T04:45:59.996Z,1004.65
2023-11-12T04:46:58.810Z,1004.62
2023-11-12T04:48:01.097Z,1004.62
2023-11-12T04:48:59.846Z,1004.63
2023-11-12T04:50:00.956Z,1004.67
2023-11-12T04:50:59.569Z,1004.66
2023-11-12T04:52:00.239Z,1004.62
2023-11-12T04:52:59.058Z,1004.66
2023-11-12T04:53:59.708Z,1004.66
2023-11-12T04:55:01.270Z,1004.66
2023-11-12T04:55:59.974Z,1004.62
2023-11-12T04:56:58.648Z,1004.61
2023-11-12T04:58:00.286Z,1004.6
2023-11-12T04:58:58.968Z,1004.6
2023-11-12T04:59:59.640Z,1004.58
2023-11-12T05:01:00.297Z,1004.59
2023-11-12T05:01:59.012Z,1004.63
2023-11-12T05:02:59.833Z,1004.63
2023-11-12T05:04:01.073Z,1004.63
2023-11-12T05:04:59.815Z,1004.65
2023-11-12T05:06:01.056Z,1004.61
2023-11-12T05:06:59.737Z,1004.63
2023-11-12T05:08:01.004Z,1004.64
2023-11-12T05:08:59.678Z,1004.63
2023-11-12T05:10:00.954Z,1004.66
2023-11-12T05:10:59.769Z,1004.68
2023-11-12T05:12:01.393Z,1004.7
2023-11-12T05:13:00.115Z,1004.66
2023-11-12T05:13:58.850Z,1004.7
2023-11-12T05:15:03.257Z,1004.71
2023-11-12T05:16:01.034Z,1004.68
2023-11-12T05:16:59.814Z,1004.7
2023-11-12T05:18:01.107Z,1004.68
2023-11-12T05:18:59.812Z,1004.65
2023-11-12T05:20:05.932Z,1004.72
2023-11-12T05:21:01.474Z,1004.72
2023-11-12T05:21:59.967Z,1004.72
2023-11-12T05:22:58.744Z,1004.72
2023-11-12T05:24:00.969Z,1004.74
2023-11-12T05:25:08.138Z,1004.77
2023-11-12T05:26:00.225Z,1004.77
2023-11-12T05:26:58.957Z,1004.73
2023-11-12T05:27:59.657Z,1004.77
2023-11-12T05:29:00.389Z,1004.72
2023-11-12T05:30:10.185Z,1004.77
2023-11-12T05:31:00.336Z,1004.76
2023-11-12T05:31:59.070Z,1004.81
2023-11-12T05:32:59.856Z,1004.79
2023-11-12T05:34:01.172Z,1004.79
2023-11-12T05:35:11.928Z,1004.86
2023-11-12T05:35:59.823Z,1004.87
2023-11-12T05:37:00.952Z,1004.85
2023-11-12T05:37:59.634Z,1004.86
2023-11-12T05:39:00.265Z,1004.88
2023-11-12T05:40:13.692Z,1004.85
2023-11-12T05:40:59.947Z,1004.89
2023-11-12T05:41:58.666Z,1004.89
2023-11-12T05:43:00.378Z,1004.91
2023-11-12T05:43:59.064Z,1004.91
2023-11-12T05:44:59.752Z,1004.92
2023-11-12T05:46:01.028Z,1004.94
2023-11-12T05:46:59.731Z,1004.92
2023-11-12T05:48:01.053Z,1004.92
2023-11-12T05:48:59.758Z,1004.93
2023-11-12T05:50:01.052Z,1004.92
2023-11-12T05:51:00.015Z,1004.94
2023-11-12T05:51:58.686Z,1004.92
2023-11-12T05:53:00.453Z,1004.95
2023-11-12T05:53:59.113Z,1004.94
2023-11-12T05:54:59.840Z,1004.96
2023-11-12T05:56:00.970Z,1004.97
2023-11-12T05:56:59.598Z,1004.97
2023-11-12T05:58:00.251Z,1004.98
2023-11-12T05:58:58.943Z,1004.98
2023-11-12T05:59:59.654Z,1004.97
2023-11-12T06:01:01.012Z,1004.95
2023-11-12T06:01:59.728Z,1004.96
2023-11-12T06:03:01.248Z,1005
2023-11-12T06:04:00.132Z,1005
2023-11-12T06:04:58.886Z,1005.02
2023-11-12T06:06:01.073Z,1005.03
2023-11-12T06:06:59.700Z,1005.02
2023-11-12T06:08:00.436Z,1005.06
2023-11-12T06:08:59.143Z,1005.08
2023-11-12T06:09:59.785Z,1005.1
2023-11-12T06:11:01.374Z,1005.06
2023-11-12T06:12:00.044Z,1005.1
2023-11-12T06:12:58.735Z,1005.08
2023-11-12T06:14:01.000Z,1005.11
2023-11-12T06:14:59.649Z,1005.1
2023-11-12T06:16:00.370Z,1005.17
2023-11-12T06:16:59.329Z,1005.16
2023-11-12T06:18:00.043Z,1005.14
2023-11-12T06:18:58.756Z,1005.16
2023-11-12T06:20:01.055Z,1005.17
2023-11-12T06:20:59.758Z,1005.19
2023-11-12T06:22:01.081Z,1005.23
2023-11-12T06:22:59.809Z,1005.25
2023-11-12T06:24:01.052Z,1005.21
2023-11-12T06:24:59.717Z,1005.22
2023-11-12T06:26:01.074Z,1005.2
2023-11-12T06:27:00.069Z,1005.22
2023-11-12T06:27:58.716Z,1005.21
2023-11-12T06:29:01.214Z,1005.24
2023-11-12T06:29:59.850Z,1005.2
2023-11-12T06:31:01.005Z,1005.17
2023-11-12T06:31:59.674Z,1005.19
2023-11-12T06:33:00.606Z,1005.23
2023-11-12T06:33:59.410Z,1005.2
2023-11-12T06:35:00.055Z,1005.21
2023-11-12T06:35:58.715Z,1005.27
2023-11-12T06:37:01.416Z,1005.23
2023-11-12T06:37:59.897Z,1005.26
2023-11-12T06:39:00.960Z,1005.3
2023-11-12T06:39:59.607Z,1005.3
2023-11-12T06:41:00.977Z,1005.3
2023-11-12T06:41:59.616Z,1005.27
2023-11-12T06:43:00.339Z,1005.29
2023-11-12T06:43:59.018Z,1005.34
2023-11-12T06:44:59.868Z,1005.33
2023-11-12T06:46:01.114Z,1005.34
2023-11-12T06:46:59.799Z,1005.37
2023-11-12T06:48:01.009Z,1005.34
2023-11-12T06:48:59.776Z,1005.3
2023-11-12T06:50:01.022Z,1005.42
2023-11-12T06:50:59.738Z,1005.38
2023-11-12T06:52:02.788Z,1005.41
2023-11-12T06:53:01.207Z,1005.41
2023-11-12T06:53:59.909Z,1005.42
2023-11-12T06:55:01.064Z,1005.44
2023-11-12T06:55:59.710Z,1005.45
2023-11-12T06:57:01.057Z,1005.42
2023-11-12T06:57:59.919Z,1005.48
2023-11-12T06:59:00.973Z,1005.45
2023-11-12T06:59:59.993Z,1005.46
2023-11-12T07:01:01.507Z,1005.49
2023-11-12T07:02:00.173Z,1005.48
2023-11-12T07:02:58.940Z,1005.51
2023-11-12T07:03:59.718Z,1005.54
2023-11-12T07:05:01.007Z,1005.5
2023-11-12T07:06:03.804Z,1005.57
2023-11-12T07:07:09.129Z,1005.58
2023-11-12T07:08:01.089Z,1005.56
2023-11-12T07:08:59.841Z,1005.54
2023-11-12T07:10:01.134Z,1005.56
2023-11-12T07:11:04.929Z,1005.54
2023-11-12T07:11:59.809Z,1005.6
2023-11-12T07:13:00.955Z,1005.57
2023-11-12T07:13:59.665Z,1005.58
2023-11-12T07:15:00.334Z,1005.59
2023-11-12T07:16:07.506Z,1005.53
2023-11-12T07:17:00.058Z,1005.58
2023-11-12T07:17:58.732Z,1005.52
2023-11-12T07:19:01.079Z,1005.57
2023-11-12T07:19:59.764Z,1005.62
2023-11-12T07:21:09.584Z,1005.57
2023-11-12T07:21:59.987Z,1005.59
2023-11-12T07:22:58.674Z,1005.58
2023-11-12T07:24:00.919Z,1005.64
2023-11-12T07:25:01.433Z,1005.64
2023-11-12T07:26:11.088Z,1005.63
2023-11-12T07:27:00.345Z,1005.65
2023-11-12T07:27:59.053Z,1005.68
2023-11-12T07:28:59.702Z,1005.64
2023-11-12T07:30:01.008Z,1005.66
2023-11-12T07:31:13.243Z,1005.64
2023-11-12T07:32:00.999Z,1005.68
2023-11-12T07:32:59.638Z,1005.65
2023-11-12T07:34:00.354Z,1005.64
2023-11-12T07:34:59.151Z,1005.65
2023-11-12T07:36:14.952Z,1005.71
2023-11-12T07:36:59.928Z,1005.67
2023-11-12T07:38:01.413Z,1005.7
2023-11-12T07:39:00.085Z,1005.7
2023-11-12T07:39:58.768Z,1005.69
2023-11-12T07:41:01.051Z,1005.67
2023-11-12T07:41:59.713Z,1005.68
2023-11-12T07:43:01.063Z,1005.69
2023-11-12T07:43:59.708Z,1005.76
2023-11-12T07:45:06.982Z,1005.73
2023-11-12T07:45:59.914Z,1005.69
2023-11-12T07:46:58.621Z,1005.75
2023-11-12T07:48:00.393Z,1005.72
2023-11-12T07:48:59.127Z,1005.74
2023-11-12T07:49:59.852Z,1005.66
2023-11-12T07:51:01.011Z,1005.76
2023-11-12T07:51:59.656Z,1005.7
2023-11-12T07:53:01.011Z,1005.73
2023-11-12T07:53:59.703Z,1005.71
2023-11-12T07:55:01.036Z,1005.73
2023-11-12T07:55:59.698Z,1005.77
2023-11-12T07:57:01.032Z,1005.75
2023-11-12T07:57:59.693Z,1005.76
2023-11-12T07:59:01.084Z,1005.72
2023-11-12T07:59:59.826Z,1005.69
2023-11-12T08:01:01.444Z,1005.71
2023-11-12T08:02:00.086Z,1005.69
2023-11-12T08:02:58.827Z,1005.72
2023-11-12T08:04:01.029Z,1005.74
2023-11-12T08:04:59.861Z,1005.75
2023-11-12T08:06:00.962Z,1005.78
2023-11-12T08:06:59.650Z,1005.79
2023-11-12T08:08:01.390Z,1005.77
2023-11-12T08:09:00.092Z,1005.77
2023-11-12T08:09:58.765Z,1005.73
2023-11-12T08:11:01.310Z,1005.76
2023-11-12T08:11:59.994Z,1005.79
2023-11-12T08:12:58.662Z,1005.77
2023-11-12T08:14:00.349Z,1005.82
2023-11-12T08:14:58.988Z,1005.84
2023-11-12T08:15:59.793Z,1005.86
2023-11-12T08:17:00.955Z,1005.81
2023-11-12T08:17:59.648Z,1005.85
2023-11-12T08:19:01.372Z,1005.84
2023-11-12T08:20:00.059Z,1005.84
2023-11-12T08:20:58.692Z,1005.81
2023-11-12T08:22:00.373Z,1005.84
2023-11-12T08:22:59.046Z,1005.79
2023-11-12T08:23:59.787Z,1005.79
2023-11-12T08:25:01.027Z,1005.76
2023-11-12T08:26:02.247Z,1005.82
2023-11-12T08:26:59.698Z,1005.8
2023-11-12T08:28:01.425Z,1005.8
2023-11-12T08:29:00.234Z,1005.81
2023-11-12T08:29:58.923Z,1005.81
2023-11-12T08:31:01.149Z,1005.84
2023-11-12T08:31:59.854Z,1005.83
2023-11-12T08:33:01.161Z,1005.86
2023-11-12T08:33:59.822Z,1005.87
2023-11-12T08:35:00.965Z,1005.85
2023-11-12T08:35:59.705Z,1005.9
2023-11-12T08:37:01.697Z,1005.87
2023-11-12T08:38:00.176Z,1005.9
2023-11-12T08:38:59.369Z,1005.91
2023-11-12T08:40:00.318Z,1005.92
2023-11-12T08:40:59.064Z,1005.9
2023-11-12T08:41:59.890Z,1005.9
2023-11-12T08:43:01.021Z,1005.91
2023-11-12T08:43:59.902Z,1005.87
2023-11-12T08:45:01.343Z,1005.94
2023-11-12T08:46:00.071Z,1005.93
2023-11-12T08:46:58.923Z,1005.91
2023-11-12T08:47:59.622Z,1005.98
2023-11-12T08:49:00.755Z,1005.99
2023-11-12T08:49:59.517Z,1006.03
2023-11-12T08:51:00.347Z,1006.06
2023-11-12T08:51:59.134Z,1006.01
2023-11-12T08:52:59.942Z,1006.07
2023-11-12T08:53:58.624Z,1006.05
2023-11-12T08:55:00.289Z,1006.08
2023-11-12T08:55:58.953Z,1006.12
2023-11-12T08:56:59.685Z,1006.08
2023-11-12T08:58:01.053Z,1006.11
2023-11-12T08:58:59.784Z,1006.12
2023-11-12T09:00:01.028Z,1006.1
2023-11-12T09:00:59.758Z,1006.08
2023-11-12T09:02:01.077Z,1006.12
2023-11-12T09:02:59.892Z,1006.15
2023-11-12T09:03:58.648Z,1006.13
2023-11-12T09:05:00.339Z,1006.12
2023-11-12T09:05:59.020Z,1006.12
2023-11-12T09:06:59.767Z,1006.13
2023-11-12T09:08:00.993Z,1006.1
2023-11-12T09:08:59.794Z,1006.18
2023-11-12T09:10:01.099Z,1006.12
2023-11-12T09:10:59.754Z,1006.18
2023-11-12T09:12:02.005Z,1006.23
2023-11-12T09:13:01.041Z,1006.23
2023-11-12T09:13:59.776Z,1006.23
2023-11-12T09:15:01.042Z,1006.25
2023-11-12T09:15:59.722Z,1006.25
2023-11-12T09:17:04.272Z,1006.27
2023-11-12T09:17:59.933Z,1006.26
2023-11-12T09:18:58.643Z,1006.31
2023-11-12T09:20:00.397Z,1006.3
2023-11-12T09:20:59.089Z,1006.32
2023-11-12T09:22:07.315Z,1006.33
2023-11-12T09:22:59.742Z,1006.36
2023-11-12T09:24:01.038Z,1006.39
2023-11-12T09:25:08.961Z,1006.35
2023-11-12T09:26:00.188Z,1006.36
2023-11-12T09:27:09.153Z,1006.34
2023-11-12T09:27:59.886Z,1006.32
2023-11-12T09:29:01.018Z,1006.34
2023-11-12T09:29:59.668Z,1006.38
2023-11-12T09:31:00.991Z,1006.33
2023-11-12T09:32:10.766Z,1006.35
2023-11-12T09:32:59.907Z,1006.34
2023-11-12T09:33:58.742Z,1006.38
2023-11-12T09:35:01.054Z,1006.33
2023-11-12T09:35:59.708Z,1006.32
2023-11-12T09:37:15.301Z,1006.34
2023-11-12T09:37:59.960Z,1006.34
2023-11-12T09:38:58.580Z,1006.35
2023-11-12T09:40:00.359Z,1006.35
2023-11-12T09:40:59.015Z,1006.36
2023-11-12T09:41:59.660Z,1006.4
2023-11-12T09:43:00.341Z,1006.38
2023-11-12T09:43:59.059Z,1006.33
2023-11-12T09:45:00.217Z,1006.3
2023-11-12T09:45:58.949Z,1006.34
2023-11-12T09:46:59.842Z,1006.32
2023-11-12T09:48:01.194Z,1006.33
2023-11-12T09:48:59.955Z,1006.33
2023-11-12T09:49:58.675Z,1006.32
2023-11-12T09:51:01.091Z,1006.27
2023-11-12T09:51:59.826Z,1006.29
2023-11-12T09:53:01.373Z,1006.29
2023-11-12T09:53:59.923Z,1006.29
2023-11-12T09:55:00.963Z,1006.32
2023-11-12T09:55:59.590Z,1006.24
2023-11-12T09:57:06.430Z,1006.26
2023-11-12T09:57:59.773Z,1006.18
2023-11-12T09:59:01.012Z,1006.18
2023-11-12T09:59:59.651Z,1006.22
2023-11-12T10:01:01.392Z,1006.21
2023-11-12T10:01:59.954Z,1006.23
2023-11-12T10:02:58.962Z,1006.19
2023-11-12T10:03:59.768Z,1006.19
2023-11-12T10:05:01.085Z,1006.21
2023-11-12T10:05:59.808Z,1006.22
2023-11-12T10:07:01.556Z,1006.23
2023-11-12T10:08:00.622Z,1006.22
2023-11-12T10:08:59.266Z,1006.24
2023-11-12T10:09:59.931Z,1006.24
2023-11-12T10:11:00.969Z,1006.22
2023-11-12T10:11:59.632Z,1006.27
2023-11-12T10:13:00.989Z,1006.28
2023-11-12T10:13:59.755Z,1006.25
2023-11-12T10:15:01.062Z,1006.29
2023-11-12T10:15:59.895Z,1006.24
2023-11-12T10:16:58.632Z,1006.28
2023-11-12T10:18:02.252Z,1006.21
2023-11-12T10:19:00.318Z,1006.22
2023-11-12T10:19:58.979Z,1006.27
2023-11-12T10:20:59.687Z,1006.27
2023-11-12T10:22:01.080Z,1006.2
2023-11-12T10:22:59.848Z,1006.19
2023-11-12T10:24:02.334Z,1006.23
2023-11-12T10:25:00.892Z,1006.19
2023-11-12T10:25:59.832Z,1006.21
2023-11-12T10:27:00.976Z,1006.24
2023-11-12T10:27:59.798Z,1006.24
2023-11-12T10:29:01.215Z,1006.22
2023-11-12T10:29:59.963Z,1006.26
2023-11-12T10:30:58.783Z,1006.23
2023-11-12T10:32:01.074Z,1006.24
2023-11-12T10:33:00.029Z,1006.22
2023-11-12T10:33:58.910Z,1006.19
2023-11-12T10:34:59.651Z,1006.24
2023-11-12T10:36:00.314Z,1006.23
2023-11-12T10:36:59.031Z,1006.23
2023-11-12T10:37:59.733Z,1006.22
2023-11-12T10:39:00.976Z,1006.23
2023-11-12T10:39:59.743Z,1006.19
2023-11-12T10:41:01.069Z,1006.25
2023-11-12T10:41:59.730Z,1006.25
2023-11-12T10:43:01.240Z,1006.24
2023-11-12T10:44:00.150Z,1006.27
2023-11-12T10:44:58.907Z,1006.28
2023-11-12T10:46:00.167Z,1006.27
2023-11-12T10:46:59.152Z,1006.32
2023-11-12T10:48:00.170Z,1006.28
2023-11-12T10:48:59.001Z,1006.27
2023-11-12T10:49:59.890Z,1006.27
2023-11-12T10:51:01.074Z,1006.24
2023-11-12T10:52:00.256Z,1006.24
2023-11-12T10:53:01.319Z,1006.23
2023-11-12T10:54:00.241Z,1006.23
2023-11-12T10:54:59.524Z,1006.28
2023-11-12T10:56:00.972Z,1006.25
2023-11-12T10:56:59.730Z,1006.24
2023-11-12T10:58:04.996Z,1006.24
2023-11-12T10:59:01.181Z,1006.25
2023-11-12T10:59:59.940Z,1006.27
2023-11-12T11:00:59.162Z,1006.27
2023-11-12T11:02:00.333Z,1006.27
2023-11-12T11:03:06.421Z,1006.26
2023-11-12T11:04:01.075Z,1006.24
2023-11-12T11:04:59.869Z,1006.27
2023-11-12T11:06:01.591Z,1006.27
2023-11-12T11:07:00.341Z,1006.35
2023-11-12T11:08:09.643Z,1006.29
2023-11-12T11:09:00.252Z,1006.34
2023-11-12T11:09:59.221Z,1006.39
2023-11-12T11:11:00.097Z,1006.39
2023-11-12T11:11:58.922Z,1006.37
2023-11-12T11:13:11.983Z,1006.39
2023-11-12T11:14:00.875Z,1006.33
2023-11-12T11:14:59.709Z,1006.37
2023-11-12T11:16:01.038Z,1006.42
2023-11-12T11:16:59.839Z,1006.4
2023-11-12T11:18:13.943Z,1006.37
2023-11-12T11:19:01.379Z,1006.35
2023-11-12T11:19:59.895Z,1006.44
2023-11-12T11:21:01.296Z,1006.44
2023-11-12T11:22:00.407Z,1006.45
2023-11-12T11:22:59.172Z,1006.41
2023-11-12T11:23:59.832Z,1006.47
2023-11-12T11:25:01.076Z,1006.47
2023-11-12T11:25:59.830Z,1006.5
2023-11-12T11:27:00.952Z,1006.47
2023-11-12T11:27:59.721Z,1006.43
2023-11-12T11:29:01.062Z,1006.47
2023-11-12T11:29:59.835Z,1006.47
2023-11-12T11:31:01.376Z,1006.47
2023-11-12T11:32:00.228Z,1006.49
2023-11-12T11:32:59.211Z,1006.43
2023-11-12T11:34:00.094Z,1006.49
2023-11-12T11:34:58.854Z,1006.49
2023-11-12T11:36:00.981Z,1006.47
2023-11-12T11:36:59.847Z,1006.48
2023-11-12T11:38:01.663Z,1006.5
2023-11-12T11:39:01.262Z,1006.49
2023-11-12T11:40:00.307Z,1006.48
2023-11-12T11:40:59.083Z,1006.5
2023-11-12T11:41:59.913Z,1006.46
2023-11-12T11:43:01.087Z,1006.53
2023-11-12T11:43:59.834Z,1006.54
2023-11-12T11:45:01.066Z,1006.55
2023-11-12T11:45:59.985Z,1006.53
2023-11-12T11:46:58.742Z,1006.55
2023-11-12T11:48:00.968Z,1006.55
2023-11-12T11:48:59.820Z,1006.52
2023-11-12T11:50:01.126Z,1006.55
2023-11-12T11:51:01.279Z,1006.5
2023-11-12T11:51:59.923Z,1006.54
2023-11-12T11:52:58.655Z,1006.5
2023-11-12T11:54:00.418Z,1006.54
2023-11-12T11:54:59.109Z,1006.58
2023-11-12T11:55:59.807Z,1006.53
2023-11-12T11:57:00.969Z,1006.51
2023-11-12T11:57:59.683Z,1006.53
2023-11-12T11:59:01.160Z,1006.56
2023-11-12T12:00:00.067Z,1006.51
2023-11-12T12:00:58.891Z,1006.47
2023-11-12T12:01:59.680Z,1006.55
2023-11-12T12:03:01.176Z,1006.58
2023-11-12T12:03:59.930Z,1006.55
2023-11-12T12:04:59.256Z,1006.6
2023-11-12T12:06:00.269Z,1006.54
2023-11-12T12:06:58.951Z,1006.59
2023-11-12T12:07:59.781Z,1006.59
2023-11-12T12:09:01.065Z,1006.59
2023-11-12T12:10:01.002Z,1006.59